CheckWX is a tool to help pilots better visualize weather data.  It is not intended as a substitute for an official pre-flight weather briefing.

20:49:59 UTC

EDVE TAF
Braunschweig Wolfsburg Airport
Germany
TAF EDVE 161700Z 1618/1621 VRB02KT CAVOK

Jun-16@
18:00 UTC

Jun-16 @ 18:00 UTC

Jun-16@
21:00 UTC

Jun-16 @ 21:00 UTC

TAF EDVE 161700Z 1618/1621 VRB02KT CAVOK
Wind
  • Variable at 2 KTS
Conditions
No significant weather
Cloud Levels
  • No significant clouds